Time;durP1;ratioP1;P1;durP2;ratioP2;P2;SDS_P1;SDS_P2;PMS_P1;PMS_P2;Temp;Humidity;BMP_temperature;BMP_pressure;BME280_temperature;BME280_humidity;BME280_pressure;Samples;Min_cycle;Max_cycle;Signal;HPM_P1;HPM_P2
2021/08/23 00:00:04;;;;;;;7.80;4.00;;;;;;;16.03;99.30;101132.98;111284;1201;60205;-83
2021/08/23 00:02:31;;;;;;;5.00;3.70;;;;;;;16.04;99.47;101128.09;111335;1202;70910;-82
2021/08/23 00:04:57;;;;;;;6.50;3.70;;;;;;;16.06;99.57;101122.13;111349;1195;73809;-82
2021/08/23 00:07:24;;;;;;;4.10;3.20;;;;;;;16.05;99.25;101118.58;111383;1201;61016;-81
2021/08/23 00:09:50;;;;;;;6.60;4.30;;;;;;;16.03;99.07;101119.75;111362;1201;60250;-82
2021/08/23 00:12:17;;;;;;;6.20;3.60;;;;;;;16.02;99.19;101117.88;111334;1202;74363;-84
2021/08/23 00:14:44;;;;;;;8.30;3.80;;;;;;;16.02;99.18;101120.92;111318;1195;71094;-81
2021/08/23 00:17:10;;;;;;;5.70;3.30;;;;;;;16.01;99.20;101116.77;111430;1201;60195;-81
2021/08/23 00:19:37;;;;;;;4.20;3.10;;;;;;;15.99;99.34;101117.13;111301;1201;60288;-82
2021/08/23 00:23:10;;;;;;;5.50;3.00;;;;;;;15.98;99.41;101118.36;111356;1202;60268;-82
2021/08/23 00:25:00;;;;;;;5.40;3.20;;;;;;;15.95;99.27;101120.74;111224;1203;75014;-82
2021/08/23 00:27:30;;;;;;;5.90;3.50;;;;;;;15.93;99.26;101120.48;111318;1202;72209;-82
2021/08/23 00:29:57;;;;;;;5.60;3.50;;;;;;;15.93;99.60;101124.44;111276;1195;72241;-81
2021/08/23 00:32:23;;;;;;;7.50;3.10;;;;;;;15.91;99.29;101132.44;111255;1203;60961;-82
2021/08/23 00:34:50;;;;;;;6.30;3.00;;;;;;;15.90;99.40;101132.73;111360;1202;60290;-83
2021/08/23 00:37:17;;;;;;;5.50;2.60;;;;;;;15.89;99.25;101134.08;111260;1202;60637;-85
2021/08/23 00:39:43;;;;;;;5.70;3.20;;;;;;;15.88;99.14;101137.89;111407;1202;71008;-82
2021/08/23 00:42:10;;;;;;;7.20;3.50;;;;;;;15.86;99.18;101137.21;111343;1202;73982;-82
2021/08/23 00:44:38;;;;;;;4.70;3.10;;;;;;;15.87;99.49;101134.95;111268;1197;61983;-82
2021/08/23 00:47:06;;;;;;;6.60;3.50;;;;;;;15.87;99.34;101137.42;111376;1195;61208;-82
2021/08/23 00:49:36;;;;;;;5.50;2.90;;;;;;;15.86;99.22;101141.98;111283;1203;73792;-82
2021/08/23 00:52:05;;;;;;;3.70;3.10;;;;;;;15.86;99.07;101143.27;111395;1203;71030;-82
2021/08/23 00:54:32;;;;;;;7.60;2.80;;;;;;;15.85;98.85;101143.25;112130;1201;71519;-82
2021/08/23 00:56:58;;;;;;;10.10;3.40;;;;;;;15.83;98.75;101141.15;111419;1203;62959;-82
2021/08/23 00:59:27;;;;;;;9.00;3.40;;;;;;;15.84;99.01;101143.58;111337;1195;60731;-82
2021/08/23 01:02:02;;;;;;;5.70;3.30;;;;;;;15.84;98.95;101143.66;111251;1203;75032;-82
2021/08/23 01:04:28;;;;;;;;;;;;;;;15.85;98.92;101144.85;111529;1202;71964;-82
2021/08/23 01:06:57;;;;;;;4.20;2.80;;;;;;;15.83;98.78;101144.86;111365;1195;60314;-82
2021/08/23 01:09:27;;;;;;;9.30;2.90;;;;;;;15.82;98.74;101148.39;111640;1201;63277;-82
2021/08/23 01:11:55;;;;;;;3.80;2.80;;;;;;;15.81;98.67;101149.69;111404;1201;61503;-82
2021/08/23 01:14:22;;;;;;;4.20;2.20;;;;;;;15.80;98.79;101157.80;111440;1203;73713;-82
2021/08/23 01:16:51;;;;;;;3.80;2.10;;;;;;;15.76;98.48;101160.41;111241;1203;61407;-86
2021/08/23 01:19:20;;;;;;;5.00;2.40;;;;;;;15.72;98.59;101158.98;111555;1195;72631;-82
2021/08/23 01:21:49;;;;;;;9.00;2.70;;;;;;;15.70;98.71;101166.52;113555;1195;61854;-83
2021/08/23 01:24:17;;;;;;;4.10;2.60;;;;;;;15.69;98.80;101166.88;112159;1195;60135;-83
2021/08/23 01:26:47;;;;;;;4.90;2.70;;;;;;;15.68;98.97;101171.27;111567;1195;73617;-82
2021/08/23 01:29:20;;;;;;;3.50;2.40;;;;;;;15.67;99.03;101173.16;111411;1202;70820;-82
2021/08/23 01:31:55;;;;;;;4.70;2.80;;;;;;;15.63;98.87;101172.94;111247;1195;72206;-81
2021/08/23 01:34:24;;;;;;;5.80;2.60;;;;;;;15.61;98.92;101176.84;111305;1203;62998;-82
2021/08/23 01:36:51;;;;;;;3.80;2.50;;;;;;;15.61;99.36;101179.88;111366;1202;60285;-81
2021/08/23 01:39:20;;;;;;;3.90;2.70;;;;;;;15.60;99.24;101181.60;111379;1203;73715;-80
2021/08/23 01:41:48;;;;;;;10.80;3.10;;;;;;;15.58;99.28;101184.85;111404;1195;71026;-83
2021/08/23 01:44:15;;;;;;;3.50;2.10;;;;;;;15.58;99.39;101184.89;111437;1202;74043;-82
2021/08/23 01:46:42;;;;;;;4.50;2.80;;;;;;;15.58;99.26;101182.21;111314;1195;61505;-82
2021/08/23 01:49:09;;;;;;;6.50;3.30;;;;;;;15.58;99.31;101182.50;111394;1201;60384;-80
2021/08/23 01:51:36;;;;;;;4.70;2.60;;;;;;;15.58;99.12;101183.25;111137;1200;74792;-82
2021/08/23 01:54:02;;;;;;;3.70;2.90;;;;;;;15.58;99.30;101187.15;111268;1202;72070;-82
2021/08/23 01:56:29;;;;;;;3.90;2.50;;;;;;;15.57;99.17;101184.63;111310;1202;73624;-80
2021/08/23 01:59:00;;;;;;;3.70;2.20;;;;;;;15.55;98.91;101178.86;111483;1202;61880;-82
2021/08/23 02:01:28;;;;;;;4.30;2.30;;;;;;;15.53;98.82;101177.48;111291;1203;61028;-81
2021/08/23 02:03:55;;;;;;;7.40;3.30;;;;;;;15.50;98.94;101177.79;111274;1198;75048;-82
2021/08/23 02:06:23;;;;;;;3.90;2.30;;;;;;;15.49;98.88;101179.72;111347;1202;70940;-82
2021/08/23 02:08:50;;;;;;;3.20;2.50;;;;;;;15.47;98.81;101182.59;111383;1201;72452;-83
2021/08/23 02:11:18;;;;;;;5.10;2.60;;;;;;;15.45;98.70;101182.00;111580;1202;61858;-83
2021/08/23 02:13:44;;;;;;;3.20;2.30;;;;;;;15.44;98.99;101178.03;111257;1202;61342;-83
2021/08/23 02:16:11;;;;;;;7.70;2.20;;;;;;;15.44;99.02;101182.20;111422;1195;61434;-82
2021/08/23 02:18:37;;;;;;;3.70;2.60;;;;;;;15.42;99.21;101182.59;111457;1202;71898;-81
2021/08/23 02:21:04;;;;;;;7.30;3.10;;;;;;;15.40;99.09;101181.55;111399;1203;60388;-81
2021/08/23 02:23:30;;;;;;;5.00;2.30;;;;;;;15.40;99.21;101187.42;111399;1194;60271;-82
2021/08/23 02:25:57;;;;;;;4.50;2.90;;;;;;;15.39;99.06;101187.88;111378;1202;60256;-83
2021/08/23 02:28:23;;;;;;;3.60;2.70;;;;;;;15.38;99.14;101185.64;111300;1201;60269;-83
2021/08/23 02:30:50;;;;;;;4.40;2.40;;;;;;;15.37;99.13;101188.02;111376;1201;60256;-81
2021/08/23 02:33:16;;;;;;;3.50;2.30;;;;;;;15.36;99.11;101185.55;111371;1201;60288;-81
2021/08/23 02:35:44;;;;;;;6.30;2.50;;;;;;;15.34;99.09;101189.44;111329;1201;60272;-91
2021/08/23 02:38:10;;;;;;;5.90;2.80;;;;;;;15.35;99.28;101192.41;111129;1198;60616;-81
2021/08/23 02:40:37;;;;;;;4.00;2.30;;;;;;;15.34;99.17;101193.72;111482;1202;60260;-81
2021/08/23 02:43:04;;;;;;;4.00;2.40;;;;;;;15.34;99.14;101199.47;111134;1203;60273;-81
2021/08/23 02:45:31;;;;;;;3.90;2.00;;;;;;;15.35;99.22;101203.75;111421;1195;72792;-82
2021/08/23 02:47:58;;;;;;;5.60;2.30;;;;;;;15.35;98.89;101208.29;111363;1201;61662;-81
2021/08/23 02:50:24;;;;;;;4.00;2.10;;;;;;;15.33;98.83;101212.14;111324;1202;61019;-82
2021/08/23 02:52:51;;;;;;;4.00;2.00;;;;;;;15.30;98.79;101212.08;111244;1194;60978;-80
2021/08/23 02:55:18;;;;;;;4.10;2.30;;;;;;;15.27;98.79;101216.16;111439;1202;70971;-81
2021/08/23 02:57:44;;;;;;;5.00;2.10;;;;;;;15.26;98.87;101216.52;111381;1202;72880;-79
2021/08/23 03:00:11;;;;;;;3.60;2.10;;;;;;;15.23;98.92;101213.70;111434;1195;60179;-81
2021/08/23 03:02:38;;;;;;;4.30;2.30;;;;;;;15.22;99.00;101219.73;112479;1195;61109;-81
2021/08/23 03:05:05;;;;;;;4.20;2.40;;;;;;;15.21;99.14;101221.48;111771;1203;60302;-83
2021/08/23 03:07:31;;;;;;;7.40;3.00;;;;;;;15.20;99.30;101218.38;111398;1201;70987;-81
2021/08/23 03:09:58;;;;;;;4.10;2.40;;;;;;;15.19;99.19;101215.94;111292;1202;60247;-82
2021/08/23 03:12:24;;;;;;;4.80;2.70;;;;;;;15.19;99.22;101218.42;111371;1201;60286;-81
2021/08/23 03:14:51;;;;;;;5.90;2.80;;;;;;;15.18;99.22;101217.35;111344;1201;60608;-81
2021/08/23 03:17:18;;;;;;;3.90;2.40;;;;;;;15.17;99.33;101222.33;111325;1203;73720;-82
2021/08/23 03:19:44;;;;;;;4.70;3.00;;;;;;;15.14;99.38;101224.23;111400;1202;60240;-83
2021/08/23 03:22:11;;;;;;;4.30;2.30;;;;;;;15.13;99.54;101224.89;111468;1201;60256;-82
2021/08/23 03:24:37;;;;;;;3.90;2.30;;;;;;;15.11;99.61;101226.83;111452;1195;60383;-83
2021/08/23 03:27:04;;;;;;;5.60;3.00;;;;;;;15.07;99.66;101225.90;111314;1195;61245;-81
2021/08/23 03:29:30;;;;;;;5.40;2.60;;;;;;;15.08;99.92;101221.09;111399;1195;73755;-82
2021/08/23 03:31:57;;;;;;;4.80;3.10;;;;;;;15.07;99.84;101224.41;111581;1195;60244;-81
2021/08/23 03:34:23;;;;;;;7.40;4.00;;;;;;;15.07;99.95;101227.08;111197;1203;60921;-80
2021/08/23 03:36:50;;;;;;;6.70;2.90;;;;;;;15.06;99.90;101230.60;111414;1195;60419;-83
2021/08/23 03:39:17;;;;;;;4.20;3.00;;;;;;;15.05;99.90;101225.02;111310;1203;61497;-82
2021/08/23 03:41:43;;;;;;;5.70;2.90;;;;;;;15.04;100.00;101227.88;111234;1202;60328;-82
2021/08/23 03:44:10;;;;;;;7.90;4.90;;;;;;;15.04;100.00;101224.76;111406;1201;71752;-81
2021/08/23 03:46:37;;;;;;;5.90;2.50;;;;;;;15.04;100.00;101225.98;111363;1202;72539;-82
2021/08/23 03:49:04;;;;;;;4.80;2.60;;;;;;;15.05;100.00;101222.83;111367;1202;61728;-82
2021/08/23 03:51:31;;;;;;;4.30;2.90;;;;;;;15.04;99.96;101227.45;111427;1201;60340;-81
2021/08/23 03:53:58;;;;;;;5.40;3.50;;;;;;;15.02;99.98;101230.12;111563;1201;74881;-80
2021/08/23 03:56:24;;;;;;;4.20;2.60;;;;;;;15.02;99.98;101228.42;111429;1202;60305;-82
2021/08/23 03:58:51;;;;;;;5.50;3.10;;;;;;;14.99;99.93;101228.41;111391;1201;61374;-82
2021/08/23 04:01:17;;;;;;;6.70;3.00;;;;;;;14.98;99.99;101229.13;111348;1196;60205;-82
2021/08/23 04:03:44;;;;;;;5.40;3.30;;;;;;;14.96;100.00;101230.57;111429;1194;60266;-81
2021/08/23 04:06:12;;;;;;;5.00;3.10;;;;;;;14.97;100.00;101231.68;111341;1202;61067;-84
2021/08/23 04:08:39;;;;;;;4.40;2.90;;;;;;;14.98;100.00;101235.84;111406;1195;70972;-82
2021/08/23 04:11:05;;;;;;;4.00;3.20;;;;;;;14.98;100.00;101240.95;111403;1202;73900;-82
2021/08/23 04:13:32;;;;;;;7.70;2.90;;;;;;;14.98;100.00;101242.92;111381;1195;60323;-82
2021/08/23 04:16:00;;;;;;;5.20;3.30;;;;;;;14.98;99.97;101246.87;111450;1201;60291;-81
2021/08/23 04:18:28;;;;;;;4.30;2.80;;;;;;;14.99;100.00;101249.04;111396;1202;74731;-82
2021/08/23 04:20:54;;;;;;;6.40;2.70;;;;;;;15.01;100.00;101253.25;111449;1201;72024;-82
2021/08/23 04:23:21;;;;;;;4.60;2.60;;;;;;;15.01;99.91;101253.71;111385;1203;60260;-82
2021/08/23 04:25:47;;;;;;;4.90;3.30;;;;;;;15.00;99.98;101257.64;111351;1199;60212;-81
2021/08/23 04:28:13;;;;;;;7.70;3.00;;;;;;;15.02;100.00;101258.31;111317;1202;60283;-81
2021/08/23 04:30:40;;;;;;;4.70;2.80;;;;;;;15.03;99.99;101258.24;111255;1203;60235;-82
2021/08/23 04:33:06;;;;;;;5.90;3.00;;;;;;;15.03;100.00;101261.87;111401;1203;60259;-83
2021/08/23 04:35:33;;;;;;;4.90;3.10;;;;;;;15.05;99.95;101263.81;111442;1203;60276;-81
2021/08/23 04:38:00;;;;;;;4.70;2.80;;;;;;;15.03;99.73;101264.54;111336;1203;61144;-83
2021/08/23 04:40:26;;;;;;;5.90;3.60;;;;;;;15.03;99.60;101261.42;111389;1204;60986;-82
2021/08/23 04:42:53;;;;;;;7.00;3.70;;;;;;;15.03;99.62;101266.55;111396;1201;60255;-83
2021/08/23 04:45:19;;;;;;;7.30;3.50;;;;;;;15.03;99.64;101265.48;111410;1202;60259;-82
2021/08/23 04:47:46;;;;;;;8.60;2.90;;;;;;;15.05;99.80;101270.22;111436;1202;60249;-81
2021/08/23 04:50:12;;;;;;;5.40;3.10;;;;;;;15.08;99.70;101267.37;111388;1195;60322;-82
2021/08/23 04:52:44;;;;;;;3.50;2.60;;;;;;;15.10;99.46;101268.75;111429;1202;60285;-82
2021/08/23 04:55:11;;;;;;;5.90;2.80;;;;;;;15.11;99.41;101276.63;111311;1203;75292;-80
2021/08/23 04:57:39;;;;;;;8.50;3.30;;;;;;;15.13;99.42;101273.92;111252;1195;72314;-82
2021/08/23 05:00:10;;;;;;;4.70;3.40;;;;;;;15.15;99.47;101272.55;111497;1202;72427;-81
2021/08/23 05:02:37;;;;;;;4.90;3.30;;;;;;;15.18;99.35;101276.35;111622;1201;63127;-81
2021/08/23 05:05:05;;;;;;;5.50;3.20;;;;;;;15.21;99.23;101280.29;111416;1201;60186;-80
2021/08/23 05:07:32;;;;;;;4.70;3.30;;;;;;;15.21;99.04;101282.55;111496;1203;74774;-83
2021/08/23 05:09:58;;;;;;;4.70;2.70;;;;;;;15.19;98.95;101284.41;111220;1203;60315;-82
2021/08/23 05:12:25;;;;;;;6.70;2.90;;;;;;;15.18;99.07;101287.70;111394;1201;61643;-82
2021/08/23 05:14:51;;;;;;;4.90;3.10;;;;;;;15.18;98.93;101294.17;111376;1201;60241;-83
2021/08/23 05:17:18;;;;;;;4.20;2.70;;;;;;;15.17;99.03;101294.11;111156;1196;60399;-89
2021/08/23 05:19:45;;;;;;;4.50;2.70;;;;;;;15.15;98.68;101296.34;111424;1195;73744;-83
2021/08/23 05:22:12;;;;;;;6.60;2.60;;;;;;;15.13;98.90;101298.64;111597;1201;60263;-84
2021/08/23 05:24:38;;;;;;;7.30;2.60;;;;;;;15.11;98.80;101299.10;111669;1201;72870;-84
2021/08/23 05:27:05;;;;;;;5.30;3.30;;;;;;;15.09;98.90;101303.61;111555;1203;60298;-85
2021/08/23 05:29:31;;;;;;;2.70;1.70;;;;;;;15.09;99.00;101302.32;111578;1202;61409;-74
2021/08/23 05:31:58;;;;;;;4.70;1.80;;;;;;;15.08;98.95;101305.09;110991;1195;60302;-73
2021/08/23 05:34:24;;;;;;;4.20;2.60;;;;;;;15.09;98.89;101304.77;111060;1201;60280;-75
2021/08/23 05:36:50;;;;;;;3.60;2.80;;;;;;;15.10;98.94;101307.37;110999;1202;61429;-74
2021/08/23 05:39:17;;;;;;;6.60;2.60;;;;;;;15.10;98.99;101310.28;111104;1202;60283;-74
2021/08/23 05:41:43;;;;;;;5.10;2.60;;;;;;;15.11;99.04;101313.23;110928;1202;60262;-74
2021/08/23 05:44:10;;;;;;;5.10;3.00;;;;;;;15.11;99.16;101313.16;110963;1195;60250;-77
2021/08/23 05:46:36;;;;;;;5.30;2.30;;;;;;;15.14;99.34;101316.56;111222;1201;60391;-76
2021/08/23 05:49:03;;;;;;;8.10;3.80;;;;;;;15.17;99.50;101316.77;111142;1201;60280;-77
2021/08/23 05:51:29;;;;;;;4.30;2.40;;;;;;;15.19;99.37;101314.33;111106;1203;60750;-75
2021/08/23 05:53:56;;;;;;;3.80;2.40;;;;;;;15.20;99.02;101318.61;110952;1203;60286;-78
2021/08/23 05:56:22;;;;;;;4.10;1.70;;;;;;;15.21;99.04;101320.83;111145;1201;60720;-76
2021/08/23 05:58:50;;;;;;;3.60;2.20;;;;;;;15.22;98.73;101325.02;111146;1202;60292;-76
2021/08/23 06:01:16;;;;;;;3.70;2.40;;;;;;;15.24;98.91;101324.23;111119;1202;60305;-77
2021/08/23 06:03:44;;;;;;;4.50;2.40;;;;;;;15.25;98.80;101321.95;111232;1202;61848;-77
2021/08/23 06:06:13;;;;;;;6.00;2.80;;;;;;;15.27;99.03;101322.70;110898;1201;60292;-76
2021/08/23 06:08:41;;;;;;;3.20;2.30;;;;;;;15.32;99.03;101327.12;110885;1201;75226;-76
2021/08/23 06:11:07;;;;;;;2.90;2.10;;;;;;;15.37;98.79;101332.27;111249;1195;70969;-76
2021/08/23 06:13:34;;;;;;;5.60;2.40;;;;;;;15.40;98.58;101334.02;110932;1203;60178;-75
2021/08/23 06:16:00;;;;;;;4.80;1.60;;;;;;;15.44;98.42;101337.14;110848;1197;60311;-77
2021/08/23 06:18:27;;;;;;;3.60;1.80;;;;;;;15.50;98.26;101337.36;111043;1202;60301;-77
2021/08/23 06:20:54;;;;;;;4.80;2.90;;;;;;;15.55;97.83;101340.94;111221;1202;60312;-76
2021/08/23 06:23:20;;;;;;;5.90;1.80;;;;;;;15.56;97.10;101342.92;111079;1202;60273;-79
2021/08/23 06:25:47;;;;;;;7.30;2.50;;;;;;;15.55;96.66;101344.64;111054;1202;72711;-81
2021/08/23 06:28:14;;;;;;;4.90;2.40;;;;;;;15.55;96.61;101346.00;111599;1202;62247;-75
2021/08/23 06:30:40;;;;;;;5.30;1.60;;;;;;;15.57;96.96;101345.85;111079;1202;60270;-78
2021/08/23 06:33:07;;;;;;;3.40;1.60;;;;;;;15.58;96.91;101350.11;111098;1201;74750;-78
2021/08/23 06:35:34;;;;;;;5.30;1.90;;;;;;;15.59;96.57;101355.30;111391;1201;70949;-77
2021/08/23 06:38:00;;;;;;;4.80;2.50;;;;;;;15.60;96.31;101355.23;111313;1203;73624;-76
2021/08/23 06:40:27;;;;;;;4.20;1.90;;;;;;;15.61;96.21;101355.48;110919;1197;60279;-78
2021/08/23 06:42:53;;;;;;;13.40;7.50;;;;;;;15.65;96.06;101357.77;110907;1201;60231;-76
2021/08/23 06:45:20;;;;;;;5.80;2.20;;;;;;;15.71;96.02;101357.80;110991;1201;60257;-75
2021/08/23 06:47:46;;;;;;;10.20;5.90;;;;;;;15.80;95.90;101364.61;111024;1201;60377;-75
2021/08/23 06:50:13;;;;;;;7.90;2.80;;;;;;;15.86;95.53;101365.86;111227;1202;60266;-76
2021/08/23 06:52:40;;;;;;;6.30;3.30;;;;;;;15.90;95.27;101369.33;111257;1201;60728;-77
2021/08/23 06:55:07;;;;;;;2.90;1.70;;;;;;;15.94;94.83;101367.80;111274;1195;60810;-76
2021/08/23 06:57:34;;;;;;;4.40;1.90;;;;;;;15.97;94.45;101366.88;111020;1201;74740;-74
2021/08/23 07:00:00;;;;;;;5.80;2.90;;;;;;;16.03;94.71;101366.64;111224;1202;60276;-75
2021/08/23 07:02:27;;;;;;;4.40;2.40;;;;;;;16.13;94.26;101368.23;111243;1201;60729;-75
2021/08/23 07:04:54;;;;;;;4.20;2.10;;;;;;;16.23;94.15;101372.83;111291;1202;61817;-76
2021/08/23 07:07:20;;;;;;;2.60;1.50;;;;;;;16.32;93.65;101373.10;111212;1201;60292;-74
2021/08/23 07:09:47;;;;;;;6.00;1.60;;;;;;;16.39;93.57;101372.07;111099;1201;61220;-76
2021/08/23 07:12:13;;;;;;;4.20;1.80;;;;;;;16.41;92.88;101380.34;111281;1198;60286;-75
2021/08/23 07:14:40;;;;;;;8.10;3.50;;;;;;;16.43;93.25;101376.14;111278;1201;61373;-75
2021/08/23 07:17:07;;;;;;;4.20;1.70;;;;;;;16.43;92.36;101381.16;111263;1201;60305;-76
2021/08/23 07:19:34;;;;;;;3.70;2.10;;;;;;;16.42;92.01;101389.15;111155;1202;61357;-75
2021/08/23 07:22:19;;;;;;;5.50;1.90;;;;;;;16.41;92.37;101397.34;110916;1197;73900;-76
2021/08/23 07:24:47;;;;;;;3.90;1.40;;;;;;;16.41;92.23;101402.08;111000;1201;72080;-76
2021/08/23 07:27:14;;;;;;;4.30;1.40;;;;;;;16.41;91.98;101407.52;111708;1202;71793;-77
2021/08/23 07:29:41;;;;;;;5.90;2.20;;;;;;;16.39;91.81;101405.73;111215;1201;62957;-76
2021/08/23 07:32:08;;;;;;;4.30;1.90;;;;;;;16.42;92.18;101408.91;111067;1203;61669;-76
2021/08/23 07:34:35;;;;;;;5.00;2.20;;;;;;;16.49;92.33;101410.49;111331;1202;73728;-76
2021/08/23 07:37:02;;;;;;;26.70;14.70;;;;;;;16.55;91.60;101409.77;111033;1202;70951;-75
2021/08/23 07:39:28;;;;;;;3.70;1.70;;;;;;;16.62;91.80;101411.52;111211;1198;73093;-76
2021/08/23 07:41:55;;;;;;;2.90;1.40;;;;;;;16.70;91.36;101414.13;110950;1202;60388;-75
2021/08/23 07:44:22;;;;;;;2.50;1.30;;;;;;;16.77;90.84;101413.70;110869;1202;60311;-77
2021/08/23 07:46:48;;;;;;;7.20;4.20;;;;;;;16.87;90.41;101416.27;110873;1202;74833;-76
2021/08/23 07:49:15;;;;;;;4.70;2.50;;;;;;;16.98;90.07;101419.52;111071;1201;71131;-76
2021/08/23 07:51:41;;;;;;;3.20;0.90;;;;;;;17.08;89.65;101426.16;110920;1203;60298;-76
2021/08/23 07:54:08;;;;;;;3.70;1.40;;;;;;;17.16;89.00;101430.23;110950;1202;61959;-75
2021/08/23 07:56:34;;;;;;;2.80;1.50;;;;;;;17.21;88.27;101431.66;110903;1196;60162;-76
2021/08/23 07:59:01;;;;;;;3.20;1.60;;;;;;;17.25;88.03;101432.62;110939;1201;60302;-76
2021/08/23 08:01:28;;;;;;;5.30;1.30;;;;;;;17.33;88.27;101438.30;110977;1201;61495;-78
2021/08/23 08:03:54;;;;;;;2.30;1.40;;;;;;;17.42;87.37;101437.12;110770;1198;72568;-77
2021/08/23 08:06:21;;;;;;;4.70;1.70;;;;;;;17.45;86.86;101442.30;110873;1203;61114;-77
2021/08/23 08:08:47;;;;;;;6.40;2.30;;;;;;;17.49;86.72;101437.80;110889;1202;60975;-76
2021/08/23 08:11:14;;;;;;;5.00;1.80;;;;;;;17.57;86.27;101441.59;110998;1195;61030;-77
2021/08/23 08:13:42;;;;;;;8.60;4.90;;;;;;;17.65;86.38;101438.54;111069;1202;61072;-73
2021/08/23 08:16:08;;;;;;;3.60;1.60;;;;;;;17.76;86.39;101439.23;110866;1201;72549;-73
2021/08/23 08:18:35;;;;;;;4.30;1.40;;;;;;;17.87;85.77;101442.03;110931;1201;61797;-74
2021/08/23 08:21:01;;;;;;;3.50;1.40;;;;;;;17.97;85.38;101442.79;111031;1202;61082;-74
2021/08/23 08:23:28;;;;;;;4.00;1.30;;;;;;;18.05;84.56;101448.65;110901;1202;61083;-76
2021/08/23 08:25:54;;;;;;;13.60;9.40;;;;;;;18.15;84.63;101447.87;111167;1201;61759;-75
2021/08/23 08:28:21;;;;;;;3.10;1.40;;;;;;;18.22;83.86;101451.34;111271;1202;71340;-77
2021/08/23 08:30:48;;;;;;;3.40;1.90;;;;;;;18.26;83.61;101454.85;111283;1202;61139;-72
2021/08/23 08:33:15;;;;;;;2.50;1.10;;;;;;;18.26;83.21;101455.52;111005;1201;61115;-75
2021/08/23 08:35:42;;;;;;;3.60;1.40;;;;;;;18.25;83.08;101461.83;110857;1201;74604;-74
2021/08/23 08:38:09;;;;;;;3.30;1.40;;;;;;;18.30;83.52;101462.25;110979;1202;70909;-73
2021/08/23 08:40:36;;;;;;;2.90;1.10;;;;;;;18.34;83.06;101462.63;111060;1202;72384;-74
2021/08/23 08:43:04;;;;;;;2.40;1.40;;;;;;;18.37;82.68;101463.85;111004;1202;61038;-74
2021/08/23 08:45:30;;;;;;;13.60;8.60;;;;;;;18.40;82.42;101465.99;111257;1194;60970;-72
2021/08/23 08:48:02;;;;;;;5.90;1.40;;;;;;;18.44;82.29;101469.55;110860;1203;75934;-72
2021/08/23 08:50:30;;;;;;;2.60;1.20;;;;;;;18.47;80.87;101463.94;110905;1203;72024;-74
2021/08/23 08:52:57;;;;;;;2.80;1.50;;;;;;;18.54;80.70;101473.10;110911;1201;73570;-75
2021/08/23 08:55:24;;;;;;;8.50;4.60;;;;;;;18.65;81.18;101471.34;110887;1203;62584;-75
2021/08/23 08:57:50;;;;;;;5.90;2.70;;;;;;;18.79;80.20;101476.95;110799;1202;61102;-74
2021/08/23 09:00:18;;;;;;;5.60;2.80;;;;;;;18.96;79.97;101478.20;111221;1202;74454;-73
2021/08/23 09:02:56;;;;;;;2.20;1.40;;;;;;;19.19;80.33;101480.49;110993;1202;70974;-74
2021/08/23 09:05:22;;;;;;;1.90;1.00;;;;;;;19.50;80.73;101479.02;110973;1203;73753;-75
2021/08/23 09:07:50;;;;;;;3.20;1.10;;;;;;;19.78;78.82;101482.83;111060;1195;61085;-72
2021/08/23 09:10:20;;;;;;;3.20;1.30;;;;;;;19.96;76.60;101478.27;111547;1195;61083;-73
2021/08/23 09:13:05;;;;;;;4.30;1.70;;;;;;;20.11;76.61;101479.11;110992;1201;76694;-74
2021/08/23 09:15:34;;;;;;;6.90;4.50;;;;;;;20.20;75.65;101481.45;110820;1203;72113;-76
2021/08/23 09:18:04;;;;;;;2.80;1.40;;;;;;;20.28;75.21;101483.56;110921;1196;73892;-73
2021/08/23 09:20:32;;;;;;;4.00;1.90;;;;;;;20.34;74.52;101490.45;111680;1202;61562;-72
2021/08/23 09:23:13;;;;;;;4.30;1.90;;;;;;;20.38;74.22;101486.73;112153;1195;61163;-74
2021/08/23 09:25:45;;;;;;;5.20;2.00;;;;;;;20.34;74.27;101487.26;111468;1201;75762;-74
2021/08/23 09:28:12;;;;;;;4.00;1.40;;;;;;;20.34;74.52;101487.80;110895;1204;71755;-74
2021/08/23 09:30:38;;;;;;;5.50;2.90;;;;;;;20.37;74.07;101491.61;110890;1201;73812;-74
2021/08/23 09:33:06;;;;;;;4.50;2.40;;;;;;;20.43;72.74;101497.88;110874;1202;61251;-74
2021/08/23 09:35:38;;;;;;;5.20;2.50;;;;;;;20.44;72.61;101498.70;111086;1202;61062;-73
2021/08/23 09:38:10;;;;;;;3.60;1.60;;;;;;;20.49;72.83;101498.81;111354;1202;75574;-74
2021/08/23 09:40:37;;;;;;;3.40;1.50;;;;;;;20.57;72.44;101500.84;111611;1201;71466;-74
2021/08/23 09:43:13;;;;;;;2.80;2.10;;;;;;;20.63;72.54;101499.63;111019;1201;71824;-73
2021/08/23 09:45:47;;;;;;;4.30;1.60;;;;;;;20.89;72.03;101502.85;111168;1195;61872;-72
2021/08/23 09:48:15;;;;;;;4.20;1.70;;;;;;;21.13;71.07;101503.66;111037;1202;62183;-74
2021/08/23 09:50:44;;;;;;;2.10;1.10;;;;;;;21.48;71.62;101504.54;111368;1202;74502;-74
2021/08/23 09:53:14;;;;;;;2.70;1.40;;;;;;;21.82;69.34;101502.50;111132;1202;70830;-74
2021/08/23 09:55:47;;;;;;;3.20;1.60;;;;;;;21.94;66.52;101505.04;110995;1202;71482;-75
2021/08/23 09:58:14;;;;;;;17.10;11.40;;;;;;;21.98;65.84;101503.02;111457;1201;61264;-74
2021/08/23 10:00:43;;;;;;;36.10;20.90;;;;;;;21.99;65.23;101509.48;110969;1202;62275;-74
2021/08/23 10:03:23;;;;;;;3.90;1.90;;;;;;;21.96;65.33;101505.25;110941;1196;75628;-75
2021/08/23 10:06:10;;;;;;;3.00;1.20;;;;;;;22.01;65.90;101507.96;110948;1201;73859;-75
2021/08/23 10:08:36;;;;;;;2.50;1.10;;;;;;;22.10;65.95;101508.36;110882;1202;71433;-76
2021/08/23 10:11:03;;;;;;;6.90;4.20;;;;;;;22.20;63.69;101511.08;110932;1202;61019;-74
2021/08/23 10:13:30;;;;;;;8.00;5.40;;;;;;;22.22;62.68;101516.33;111066;1195;61081;-74
2021/08/23 10:15:56;;;;;;;2.80;1.30;;;;;;;22.21;61.94;101518.96;110964;1202;73714;-75
2021/08/23 10:18:23;;;;;;;34.70;22.70;;;;;;;22.17;61.83;101521.88;111050;1203;61686;-74
2021/08/23 10:20:50;;;;;;;3.40;1.30;;;;;;;22.15;61.58;101524.91;111155;1202;72565;-74
2021/08/23 10:23:17;;;;;;;2.40;1.30;;;;;;;22.25;61.56;101524.02;111144;1202;61049;-74
2021/08/23 10:25:46;;;;;;;1.70;0.90;;;;;;;22.37;60.43;101524.07;111238;1202;61087;-74
2021/08/23 10:28:16;;;;;;;99.90;68.50;;;;;;;22.47;60.19;101522.72;111253;1202;75611;-73
2021/08/23 10:30:43;;;;;;;4.80;1.40;;;;;;;22.56;59.58;101524.40;111014;1204;72421;-74
2021/08/23 10:33:18;;;;;;;12.00;6.90;;;;;;;22.65;60.19;101527.36;110994;1202;72240;-74
2021/08/23 10:35:48;;;;;;;56.20;39.10;;;;;;;22.65;58.99;101528.73;111051;1202;61069;-74
2021/08/23 10:38:18;;;;;;;2.10;1.00;;;;;;;22.57;58.40;101536.38;111103;1202;61190;-75
2021/08/23 10:40:45;;;;;;;5.30;2.30;;;;;;;22.57;59.25;101536.11;111162;1202;74577;-73
2021/08/23 10:43:13;;;;;;;3.40;1.70;;;;;;;22.64;59.31;101538.98;111056;1204;71204;-75
2021/08/23 10:45:41;;;;;;;2.40;1.00;;;;;;;22.75;57.80;101539.30;110926;1202;73840;-75
2021/08/23 10:48:13;;;;;;;5.90;1.20;;;;;;;22.78;57.27;101538.27;111174;1202;61072;-72
2021/08/23 10:50:43;;;;;;;2.00;0.70;;;;;;;22.91;58.27;101538.83;111157;1199;61019;-75
2021/08/23 10:53:12;;;;;;;1.30;0.70;;;;;;;23.14;56.02;101540.23;111122;1201;75982;-74
2021/08/23 10:55:39;;;;;;;3.60;0.80;;;;;;;23.36;54.53;101535.11;111010;1202;70970;-74
2021/08/23 10:58:09;;;;;;;2.70;0.70;;;;;;;23.56;51.09;101541.40;110922;1204;74176;-75
2021/08/23 11:00:41;;;;;;;4.10;0.80;;;;;;;23.72;50.34;101543.02;111736;1202;61079;-76
2021/08/23 11:03:13;;;;;;;1.70;0.70;;;;;;;23.88;48.97;101543.64;111133;1202;61088;-74
2021/08/23 11:05:40;;;;;;;1.20;0.50;;;;;;;23.97;47.13;101545.19;111485;1202;74495;-76
2021/08/23 11:08:12;;;;;;;1.50;0.50;;;;;;;24.06;45.88;101543.06;111214;1202;71097;-74
2021/08/23 11:10:40;;;;;;;1.50;0.60;;;;;;;24.14;46.18;101539.84;111506;1202;72585;-74
2021/08/23 11:13:24;;;;;;;1.70;0.70;;;;;;;24.34;47.03;101540.38;111410;1202;61166;-75
2021/08/23 11:16:03;;;;;;;;;;;;;;;24.37;45.21;101542.98;111310;1203;61083;-74
2021/08/23 11:18:30;;;;;;;1.70;0.60;;;;;;;24.26;46.04;101541.17;111289;1202;74665;-72